sensor_id;sensor_type;location;lat;lon;timestamp;P1;durP1;ratioP1;P2;durP2;ratioP2
23594;SDS011;11975;47.674;9.472;2023-02-15T04:32:32;1999.90;;;999.90;;
23594;SDS011;11975;47.674;9.472;2023-02-15T04:34:59;1999.90;;;999.90;;
23594;SDS011;11975;47.674;9.472;2023-02-15T04:37:25;1999.90;;;999.90;;
23594;SDS011;11975;47.674;9.472;2023-02-15T04:39:50;1999.90;;;999.90;;
23594;SDS011;11975;47.674;9.472;2023-02-15T04:42:16;1999.90;;;999.90;;
23594;SDS011;11975;47.674;9.472;2023-02-15T04:44:42;1999.90;;;999.90;;
23594;SDS011;11975;47.674;9.472;2023-02-15T04:47:08;1999.90;;;999.90;;
23594;SDS011;11975;47.674;9.472;2023-02-15T04:49:34;1999.90;;;999.90;;
23594;SDS011;11975;47.674;9.472;2023-02-15T04:52:00;1999.90;;;999.90;;
23594;SDS011;11975;47.674;9.472;2023-02-15T04:54:26;1999.90;;;999.90;;
23594;SDS011;11975;47.674;9.472;2023-02-15T04:56:52;1999.90;;;999.90;;
23594;SDS011;11975;47.674;9.472;2023-02-15T04:59:18;1999.90;;;999.90;;
23594;SDS011;11975;47.674;9.472;2023-02-15T05:01:44;1999.90;;;999.90;;
23594;SDS011;11975;47.674;9.472;2023-02-15T05:04:10;1999.90;;;999.90;;
23594;SDS011;11975;47.674;9.472;2023-02-15T05:06:36;1999.90;;;999.90;;
23594;SDS011;11975;47.674;9.472;2023-02-15T05:09:02;1999.90;;;999.90;;
23594;SDS011;11975;47.674;9.472;2023-02-15T05:11:28;1999.90;;;999.90;;
23594;SDS011;11975;47.674;9.472;2023-02-15T05:13:54;1999.90;;;999.90;;
23594;SDS011;11975;47.674;9.472;2023-02-15T05:16:20;1999.90;;;999.90;;
23594;SDS011;11975;47.674;9.472;2023-02-15T05:18:46;1999.90;;;999.90;;
23594;SDS011;11975;47.674;9.472;2023-02-15T05:21:12;1999.90;;;999.90;;
23594;SDS011;11975;47.674;9.472;2023-02-15T05:23:39;1999.90;;;999.90;;
23594;SDS011;11975;47.674;9.472;2023-02-15T05:26:05;1999.90;;;999.90;;
23594;SDS011;11975;47.674;9.472;2023-02-15T05:28:49;1999.90;;;999.90;;
23594;SDS011;11975;47.674;9.472;2023-02-15T05:31:16;1999.90;;;999.90;;
23594;SDS011;11975;47.674;9.472;2023-02-15T05:33:43;1999.90;;;999.90;;
23594;SDS011;11975;47.674;9.472;2023-02-15T05:36:10;1999.90;;;999.90;;
23594;SDS011;11975;47.674;9.472;2023-02-15T05:38:36;1999.90;;;999.90;;
23594;SDS011;11975;47.674;9.472;2023-02-15T05:41:06;1999.90;;;999.90;;
23594;SDS011;11975;47.674;9.472;2023-02-15T05:43:32;1999.90;;;999.90;;
23594;SDS011;11975;47.674;9.472;2023-02-15T05:45:59;1999.90;;;999.90;;
23594;SDS011;11975;47.674;9.472;2023-02-15T05:48:25;1999.90;;;999.90;;
23594;SDS011;11975;47.674;9.472;2023-02-15T05:53:25;1999.90;;;999.90;;
23594;SDS011;11975;47.674;9.472;2023-02-15T05:55:51;1999.90;;;999.90;;
23594;SDS011;11975;47.674;9.472;2023-02-15T05:58:17;1999.90;;;999.90;;
23594;SDS011;11975;47.674;9.472;2023-02-15T06:00:43;1999.90;;;999.90;;
23594;SDS011;11975;47.674;9.472;2023-02-15T06:03:09;1999.90;;;999.90;;
23594;SDS011;11975;47.674;9.472;2023-02-15T06:05:35;1999.90;;;999.90;;
23594;SDS011;11975;47.674;9.472;2023-02-15T06:08:01;1999.90;;;999.90;;
23594;SDS011;11975;47.674;9.472;2023-02-15T06:10:27;1999.90;;;999.90;;
23594;SDS011;11975;47.674;9.472;2023-02-15T06:12:53;1999.90;;;999.90;;
23594;SDS011;11975;47.674;9.472;2023-02-15T06:15:19;1999.90;;;999.90;;
23594;SDS011;11975;47.674;9.472;2023-02-15T06:17:45;1999.90;;;999.90;;
23594;SDS011;11975;47.674;9.472;2023-02-15T06:20:11;1999.90;;;999.90;;
23594;SDS011;11975;47.674;9.472;2023-02-15T06:22:37;1999.90;;;999.90;;
23594;SDS011;11975;47.674;9.472;2023-02-15T06:25:03;1999.90;;;999.90;;
23594;SDS011;11975;47.674;9.472;2023-02-15T06:27:29;1999.90;;;999.90;;
23594;SDS011;11975;47.674;9.472;2023-02-15T06:29:55;1999.90;;;999.90;;
23594;SDS011;11975;47.674;9.472;2023-02-15T16:46:33;1999.90;;;999.90;;
23594;SDS011;11975;47.674;9.472;2023-02-15T16:49:04;1999.90;;;999.90;;
23594;SDS011;11975;47.674;9.472;2023-02-15T16:51:33;1999.90;;;999.90;;
23594;SDS011;11975;47.674;9.472;2023-02-15T16:54:04;1999.90;;;999.90;;
23594;SDS011;11975;47.674;9.472;2023-02-15T16:56:31;1999.90;;;999.90;;
23594;SDS011;11975;47.674;9.472;2023-02-15T16:58:58;1999.90;;;999.90;;
23594;SDS011;11975;47.674;9.472;2023-02-15T17:01:25;1999.90;;;999.90;;
23594;SDS011;11975;47.674;9.472;2023-02-15T17:04:09;1999.90;;;999.90;;
23594;SDS011;11975;47.674;9.472;2023-02-15T17:06:37;1999.90;;;999.90;;
23594;SDS011;11975;47.674;9.472;2023-02-15T17:09:04;1999.90;;;999.90;;
23594;SDS011;11975;47.674;9.472;2023-02-15T17:11:35;1999.90;;;999.90;;
23594;SDS011;11975;47.674;9.472;2023-02-15T17:19:33;1999.90;;;999.90;;
23594;SDS011;11975;47.674;9.472;2023-02-15T17:22:14;1999.90;;;999.90;;
23594;SDS011;11975;47.674;9.472;2023-02-15T17:24:43;32.00;;;29.40;;
23594;SDS011;11975;47.674;9.472;2023-02-15T17:27:23;30.83;;;28.98;;
23594;SDS011;11975;47.674;9.472;2023-02-15T17:29:52;31.90;;;29.40;;
23594;SDS011;11975;47.674;9.472;2023-02-15T17:32:22;31.15;;;28.75;;
23594;SDS011;11975;47.674;9.472;2023-02-15T17:37:27;33.28;;;30.58;;
23594;SDS011;11975;47.674;9.472;2023-02-15T17:39:56;30.33;;;28.42;;
23594;SDS011;11975;47.674;9.472;2023-02-15T17:42:24;29.67;;;27.70;;
23594;SDS011;11975;47.674;9.472;2023-02-15T17:44:50;1999.90;;;999.90;;
23594;SDS011;11975;47.674;9.472;2023-02-15T17:47:17;1999.90;;;999.90;;
23594;SDS011;11975;47.674;9.472;2023-02-15T17:49:44;1999.90;;;999.90;;
23594;SDS011;11975;47.674;9.472;2023-02-15T17:52:14;1999.90;;;999.90;;
23594;SDS011;11975;47.674;9.472;2023-02-15T17:54:41;1999.90;;;999.90;;
23594;SDS011;11975;47.674;9.472;2023-02-15T17:57:33;1999.90;;;999.90;;
23594;SDS011;11975;47.674;9.472;2023-02-15T17:59:59;1999.90;;;999.90;;
23594;SDS011;11975;47.674;9.472;2023-02-15T18:02:43;1999.90;;;999.90;;
23594;SDS011;11975;47.674;9.472;2023-02-15T18:05:27;31.15;;;28.75;;
23594;SDS011;11975;47.674;9.472;2023-02-15T18:08:16;31.85;;;29.65;;
23594;SDS011;11975;47.674;9.472;2023-02-15T18:11:01;31.58;;;29.15;;
23594;SDS011;11975;47.674;9.472;2023-02-15T18:13:46;32.67;;;29.77;;
23594;SDS011;11975;47.674;9.472;2023-02-15T18:16:16;33.42;;;30.30;;
23594;SDS011;11975;47.674;9.472;2023-02-15T18:18:47;30.27;;;28.38;;
23594;SDS011;11975;47.674;9.472;2023-02-15T18:21:13;32.40;;;29.85;;
23594;SDS011;11975;47.674;9.472;2023-02-15T18:23:41;32.10;;;29.42;;
23594;SDS011;11975;47.674;9.472;2023-02-15T18:26:12;31.63;;;29.40;;
23594;SDS011;11975;47.674;9.472;2023-02-15T18:28:42;31.48;;;28.73;;
23594;SDS011;11975;47.674;9.472;2023-02-15T18:31:08;31.52;;;29.40;;
23594;SDS011;11975;47.674;9.472;2023-02-15T18:33:37;30.10;;;27.95;;
23594;SDS011;11975;47.674;9.472;2023-02-15T18:36:05;31.05;;;28.85;;
23594;SDS011;11975;47.674;9.472;2023-02-15T18:38:32;31.38;;;29.23;;
23594;SDS011;11975;47.674;9.472;2023-02-15T18:40:59;30.73;;;28.33;;
23594;SDS011;11975;47.674;9.472;2023-02-15T18:43:25;30.55;;;28.60;;
23594;SDS011;11975;47.674;9.472;2023-02-15T18:45:51;30.73;;;28.42;;
23594;SDS011;11975;47.674;9.472;2023-02-15T18:48:17;29.42;;;27.52;;
23594;SDS011;11975;47.674;9.472;2023-02-15T18:50:43;32.70;;;30.17;;
23594;SDS011;11975;47.674;9.472;2023-02-15T18:53:12;1999.90;;;999.90;;
23594;SDS011;11975;47.674;9.472;2023-02-15T18:55:41;1999.90;;;999.90;;
23594;SDS011;11975;47.674;9.472;2023-02-15T18:58:14;1999.90;;;999.90;;
23594;SDS011;11975;47.674;9.472;2023-02-15T19:00:44;1999.90;;;999.90;;
23594;SDS011;11975;47.674;9.472;2023-02-15T19:03:11;1999.90;;;999.90;;
23594;SDS011;11975;47.674;9.472;2023-02-15T19:05:39;1999.90;;;999.90;;
23594;SDS011;11975;47.674;9.472;2023-02-15T19:08:08;1999.90;;;999.90;;
23594;SDS011;11975;47.674;9.472;2023-02-15T19:10:40;1999.90;;;999.90;;
23594;SDS011;11975;47.674;9.472;2023-02-15T19:13:09;1999.90;;;999.90;;
23594;SDS011;11975;47.674;9.472;2023-02-15T19:15:36;1999.90;;;999.90;;
23594;SDS011;11975;47.674;9.472;2023-02-15T19:18:02;1999.90;;;999.90;;
23594;SDS011;11975;47.674;9.472;2023-02-15T19:23:01;1999.90;;;999.90;;
23594;SDS011;11975;47.674;9.472;2023-02-15T19:25:28;1999.90;;;999.90;;
23594;SDS011;11975;47.674;9.472;2023-02-15T19:27:55;1999.90;;;999.90;;
23594;SDS011;11975;47.674;9.472;2023-02-15T19:30:25;1999.90;;;999.90;;
23594;SDS011;11975;47.674;9.472;2023-02-15T19:32:55;1999.90;;;999.90;;
23594;SDS011;11975;47.674;9.472;2023-02-15T19:35:22;1999.90;;;999.90;;
23594;SDS011;11975;47.674;9.472;2023-02-15T19:37:52;1999.90;;;999.90;;
23594;SDS011;11975;47.674;9.472;2023-02-15T19:40:25;1999.90;;;999.90;;
23594;SDS011;11975;47.674;9.472;2023-02-15T19:42:53;1999.90;;;999.90;;
23594;SDS011;11975;47.674;9.472;2023-02-15T19:45:29;1999.90;;;999.90;;
23594;SDS011;11975;47.674;9.472;2023-02-15T19:47:56;1999.90;;;999.90;;
23594;SDS011;11975;47.674;9.472;2023-02-15T19:50:25;1999.90;;;999.90;;
23594;SDS011;11975;47.674;9.472;2023-02-15T19:52:53;1999.90;;;999.90;;
23594;SDS011;11975;47.674;9.472;2023-02-15T19:55:21;1999.90;;;999.90;;
23594;SDS011;11975;47.674;9.472;2023-02-15T19:57:50;1999.90;;;999.90;;
23594;SDS011;11975;47.674;9.472;2023-02-15T20:00:18;1999.90;;;999.90;;
23594;SDS011;11975;47.674;9.472;2023-02-15T20:02:54;1999.90;;;999.90;;
23594;SDS011;11975;47.674;9.472;2023-02-15T20:05:21;1999.90;;;999.90;;
23594;SDS011;11975;47.674;9.472;2023-02-15T20:07:48;1999.90;;;999.90;;
23594;SDS011;11975;47.674;9.472;2023-02-15T20:12:45;1999.90;;;999.90;;
23594;SDS011;11975;47.674;9.472;2023-02-15T20:17:49;1999.90;;;999.90;;
23594;SDS011;11975;47.674;9.472;2023-02-15T20:20:16;1999.90;;;999.90;;
23594;SDS011;11975;47.674;9.472;2023-02-15T20:22:45;1999.90;;;999.90;;
23594;SDS011;11975;47.674;9.472;2023-02-15T20:25:19;1999.90;;;999.90;;
23594;SDS011;11975;47.674;9.472;2023-02-15T20:27:50;1999.90;;;999.90;;
23594;SDS011;11975;47.674;9.472;2023-02-15T20:30:16;1999.90;;;999.90;;
23594;SDS011;11975;47.674;9.472;2023-02-15T20:32:47;1999.90;;;999.90;;
23594;SDS011;11975;47.674;9.472;2023-02-15T20:35:13;1999.90;;;999.90;;
23594;SDS011;11975;47.674;9.472;2023-02-15T20:37:40;1999.90;;;999.90;;
23594;SDS011;11975;47.674;9.472;2023-02-15T20:40:13;1999.90;;;999.90;;
23594;SDS011;11975;47.674;9.472;2023-02-15T20:42:39;1999.90;;;999.90;;
23594;SDS011;11975;47.674;9.472;2023-02-15T20:45:13;1999.90;;;999.90;;
23594;SDS011;11975;47.674;9.472;2023-02-15T20:47:46;1999.90;;;999.90;;
23594;SDS011;11975;47.674;9.472;2023-02-15T20:50:14;1999.90;;;999.90;;
23594;SDS011;11975;47.674;9.472;2023-02-15T20:52:41;1999.90;;;999.90;;
23594;SDS011;11975;47.674;9.472;2023-02-15T20:55:18;1999.90;;;999.90;;
23594;SDS011;11975;47.674;9.472;2023-02-15T20:57:47;1999.90;;;999.90;;
23594;SDS011;11975;47.674;9.472;2023-02-15T21:02:49;1999.90;;;999.90;;
23594;SDS011;11975;47.674;9.472;2023-02-15T21:05:19;1999.90;;;999.90;;
23594;SDS011;11975;47.674;9.472;2023-02-15T21:07:47;1999.90;;;999.90;;
23594;SDS011;11975;47.674;9.472;2023-02-15T21:10:24;1999.90;;;999.90;;
23594;SDS011;11975;47.674;9.472;2023-02-15T21:12:52;1999.90;;;999.90;;
23594;SDS011;11975;47.674;9.472;2023-02-15T21:15:29;1999.90;;;999.90;;
23594;SDS011;11975;47.674;9.472;2023-02-15T21:18:01;1999.90;;;999.90;;
23594;SDS011;11975;47.674;9.472;2023-02-15T21:20:32;1999.90;;;999.90;;
23594;SDS011;11975;47.674;9.472;2023-02-15T21:23:00;1999.90;;;999.90;;
23594;SDS011;11975;47.674;9.472;2023-02-15T21:25:35;1999.90;;;999.90;;
23594;SDS011;11975;47.674;9.472;2023-02-15T21:28:02;1999.90;;;999.90;;
23594;SDS011;11975;47.674;9.472;2023-02-15T21:30:28;1999.90;;;999.90;;
23594;SDS011;11975;47.674;9.472;2023-02-15T21:32:54;1999.90;;;999.90;;
23594;SDS011;11975;47.674;9.472;2023-02-15T21:35:20;1999.90;;;999.90;;
23594;SDS011;11975;47.674;9.472;2023-02-15T21:37:50;1999.90;;;999.90;;
23594;SDS011;11975;47.674;9.472;2023-02-15T21:40:25;1999.90;;;999.90;;
23594;SDS011;11975;47.674;9.472;2023-02-15T21:42:52;1999.90;;;999.90;;
23594;SDS011;11975;47.674;9.472;2023-02-15T21:45:36;1999.90;;;999.90;;
23594;SDS011;11975;47.674;9.472;2023-02-15T21:48:21;1999.90;;;999.90;;
23594;SDS011;11975;47.674;9.472;2023-02-15T21:50:47;1999.90;;;999.90;;
23594;SDS011;11975;47.674;9.472;2023-02-15T21:53:33;1999.90;;;999.90;;
23594;SDS011;11975;47.674;9.472;2023-02-15T21:56:14;1999.90;;;999.90;;
23594;SDS011;11975;47.674;9.472;2023-02-15T21:58:42;1999.90;;;999.90;;
23594;SDS011;11975;47.674;9.472;2023-02-15T22:01:21;1999.90;;;999.90;;
23594;SDS011;11975;47.674;9.472;2023-02-15T22:03:48;1999.90;;;999.90;;
23594;SDS011;11975;47.674;9.472;2023-02-15T22:06:15;1999.90;;;999.90;;
23594;SDS011;11975;47.674;9.472;2023-02-15T22:08:41;1999.90;;;999.90;;
23594;SDS011;11975;47.674;9.472;2023-02-15T22:11:10;1999.90;;;999.90;;
23594;SDS011;11975;47.674;9.472;2023-02-15T22:13:38;1999.90;;;999.90;;
23594;SDS011;11975;47.674;9.472;2023-02-15T22:16:04;1999.90;;;999.90;;
23594;SDS011;11975;47.674;9.472;2023-02-15T22:18:31;1999.90;;;999.90;;
23594;SDS011;11975;47.674;9.472;2023-02-15T22:21:00;1999.90;;;999.90;;
23594;SDS011;11975;47.674;9.472;2023-02-15T22:23:26;1999.90;;;999.90;;
23594;SDS011;11975;47.674;9.472;2023-02-15T22:25:54;1999.90;;;999.90;;
23594;SDS011;11975;47.674;9.472;2023-02-15T22:28:30;1999.90;;;999.90;;
23594;SDS011;11975;47.674;9.472;2023-02-15T22:30:58;1999.90;;;999.90;;
23594;SDS011;11975;47.674;9.472;2023-02-15T22:33:28;1999.90;;;999.90;;
23594;SDS011;11975;47.674;9.472;2023-02-15T22:35:55;1999.90;;;999.90;;
23594;SDS011;11975;47.674;9.472;2023-02-15T22:38:21;1999.90;;;999.90;;
23594;SDS011;11975;47.674;9.472;2023-02-15T22:40:48;1999.90;;;999.90;;
